Terminal Aerodrome Forecast
Issued by NWS Charleston, WV

Current Version | Previous Version | Text Only | Print | Product List | Glossary Off
Versions: 1 2 3 4 5 6 7 8 9 10 11 12 13 14 15 16 17 18 19 20 21 22

925
FTUS41 KRLX 251159
TAFPKB
TAF
KPKB 251159Z 2512/2612 00000KT P6SM OVC025
     FM251400 32004KT 6SM -SHRA BKN015
     FM251700 31006KT P6SM OVC020
     FM260200 34005KT P6SM BKN035
     FM260600 33003KT P6SM BKN015
     FM261000 35003KT P6SM BKN020=

USA.gov is the U.S. government's official web portal to all federal, state and local government web resources and services.